Asian Breeze — 9VYM — position and weather

sailwx.info

Track history (hours):
 
Tides and Currents Weather Stations Pressure Air Temp Water Temp Dewpoint Dewpoint Depression Visibility Wind Speed Wind Dir Waves Ship Positions

Asian Breeze

Last reported at 2017-Dec-11 07:57 UTC. Time now 2017-Dec-13 03:24 UTC.
Position N 49°48' W 003°22'.

Length 164 m; draft 6.3 m.

Type: Cargo ship. MMSI: 564994000.

Date/timePositionNaut miles runAvg speedWind from/ knotsBaromVisibWave heightAir tempDewpointWater temp
2017-Dec-11 07:57N 49°48' W 003°22'1516.0
2017-Dec-11 06:59N 49°56' W 003°02'816.2
2017-Dec-11 06:29N 49°60' W 002°51'916.1
2017-Dec-11 05:56N 50°02' W 002°37'8513.7
2017-Dec-10 23:44N 50°24' W 000°29'315.2
2017-Dec-10 23:30N 50°25' W 000°24'815.7
2017-Dec-10 23:00N 50°27' W 000°12'816.2
2017-Dec-10 22:30N 50°29' W 000°00'816.3
2017-Dec-10 22:00N 50°31' E 000°12'816.5
2017-Dec-10 21:30N 50°34' E 000°25'816.3
2017-Dec-10 21:00N 50°37' E 000°37'816.1
2017-Dec-10 20:30N 50°41' E 000°48'815.7
2017-Dec-10 20:00N 50°46' E 000°57'815.0
2017-Dec-10 19:30N 50°50' E 001°07'714.4
2017-Dec-10 19:00N 50°54' E 001°17'713.3
2017-Dec-10 18:30N 50°59' E 001°23'612.4
2017-Dec-10 18:00N 51°04' E 001°29'611.8
2017-Dec-10 17:31N 51°09' E 001°35'612.1
2017-Dec-10 17:01N 51°14' E 001°38'713.8
2017-Dec-10 16:31N 51°21' E 001°37'713.2
2017-Dec-10 16:00N 51°26' E 001°29'510.1
2017-Dec-10 15:30N 51°28' E 001°22'13 1.0
2017-Dec-10 03:12N 51°30' E 001°02'316.1
2017-Dec-10 03:00N 51°29' E 001°07'816.2
2017-Dec-10 02:31N 51°29' E 001°20'713.7
2017-Dec-10 02:00N 51°26' E 001°30'3 5.7
2017-Dec-10 01:30N 51°24' E 001°33'4 8.7
2017-Dec-10 01:00N 51°23' E 001°40'815.3
2017-Dec-10 00:30N 51°28' E 001°48'714.2
2017-Dec-10 00:00N 51°27' E 001°59'815.1
2017-Dec-09 23:30N 51°23' E 002°10'714.7
2017-Dec-09 23:00N 51°21' E 002°21'815.7
2017-Dec-09 22:28N 51°23' E 002°35'613.4
2017-Dec-09 21:59N 51°23' E 002°45'714.0
2017-Dec-09 21:30N 51°23' E 002°56'714.3
2017-Dec-09 21:00N 51°24' E 003°07'510.6
2017-Dec-09 20:31N 51°20' E 003°13'0 0.1
2017-Dec-09 20:01N 51°20' E 003°13'0 0.0
2017-Dec-09 19:30N 51°20' E 003°13'1 2.6
2017-Dec-09 19:01N 51°19' E 003°13'0 0.0
2017-Dec-09 18:31N 51°19' E 003°13'0 0.0
2017-Dec-09 18:01N 51°19' E 003°13'0 0.0
2017-Dec-09 17:31N 51°19' E 003°13'0 0.0
2017-Dec-09 17:01N 51°19' E 003°13'0 0.0
2017-Dec-09 16:28N 51°19' E 003°13'0 0.0
2017-Dec-09 15:58N 51°19' E 003°13'0 0.0
2017-Dec-09 15:25N 51°19' E 003°13'0 0.0
2017-Dec-09 14:58N 51°19' E 003°13'0 0.0
2017-Dec-09 14:28N 51°19' E 003°13'0 0.0
2017-Dec-09 13:58N 51°19' E 003°13'0 0.0
2017-Dec-09 13:28N 51°19' E 003°13'0 0.0
2017-Dec-09 12:58N 51°19' E 003°13'0 0.0
2017-Dec-09 12:28N 51°19' E 003°13'0 0.0
2017-Dec-09 11:58N 51°19' E 003°13'0 0.0
2017-Dec-09 11:28N 51°19' E 003°13'0 0.0
2017-Dec-09 10:58N 51°19' E 003°13'0 0.0
2017-Dec-09 10:28N 51°19' E 003°13'0 0.0
2017-Dec-09 09:58N 51°19' E 003°13'0 0.0
2017-Dec-09 09:28N 51°19' E 003°13'0 0.0
2017-Dec-09 08:58N 51°19' E 003°13'0 0.0
2017-Dec-09 08:28N 51°19' E 003°13'0 0.0
2017-Dec-09 07:58N 51°19' E 003°13'0 0.0
2017-Dec-09 07:28N 51°19' E 003°13'0 0.3
2017-Dec-09 07:00N 51°19' E 003°13'1 2.2
2017-Dec-09 06:30N 51°20' E 003°13'0 0.0
2017-Dec-09 06:00N 51°20' E 003°13'1 1.0
2017-Dec-09 05:30N 51°20' E 003°13'4 8.6
2017-Dec-09 05:01N 51°24' E 003°08'713.6
2017-Dec-09 04:30N 51°22' E 002°57'815.2
2017-Dec-09 04:00N 51°22' E 002°45'813.3
2017-Dec-09 03:26N 51°22' E 002°33'715.8
2017-Dec-09 03:00N 51°20' E 002°23'815.3
2017-Dec-09 02:30N 51°16' E 002°12'815.1
2017-Dec-09 02:00N 51°12' E 002°02'714.4
2017-Dec-09 01:31N 51°09' E 001°52'714.0
2017-Dec-09 01:00N 51°05' E 001°42'612.9
2017-Dec-09 00:30N 51°00' E 001°36'612.8
2017-Dec-09 00:00N 50°55' E 001°29'612.1
2017-Dec-08 23:30N 50°50' E 001°25'2913.1
2017-Dec-08 21:19N 50°28' E 000°56'514.5
2017-Dec-08 20:59N 50°26' E 000°48'3613.3
2017-Dec-08 18:16N 50°10' W 000°02'413.8
2017-Dec-08 18:00N 50°06' W 000°03'713.9
2017-Dec-08 17:30N 49°59' W 000°05'714.0
2017-Dec-08 17:00N 49°52' W 000°07'714.2
2017-Dec-08 16:30N 49°45' W 000°08'714.2
2017-Dec-08 16:00N 49°39' W 000°05'714.3
2017-Dec-08 15:30N 49°32' W 000°00'611.2
2017-Dec-08 15:01N 49°29' E 000°06'2 5.0
2017-Dec-08 14:30N 49°29' E 000°10'0 0.1
2017-Dec-08 14:01N 49°29' E 000°10'1 2.3
2017-Dec-08 13:31N 49°28' E 000°12'0 0.0
2017-Dec-08 13:00N 49°28' E 000°12'0 0.0
2017-Dec-08 12:28N 49°28' E 000°12'0 0.0
2017-Dec-08 11:58N 49°28' E 000°12'0 0.0
2017-Dec-08 11:28N 49°28' E 000°12'0 0.0
2017-Dec-08 10:58N 49°28' E 000°12'0 0.0
2017-Dec-08 10:28N 49°28' E 000°12'0 0.0
2017-Dec-08 09:58N 49°28' E 000°12'0 0.0
2017-Dec-08 09:28N 49°28' E 000°12'0 0.0
2017-Dec-08 08:58N 49°28' E 000°12'0 0.0
2017-Dec-08 08:28N 49°28' E 000°12'0 0.0
2017-Dec-08 07:58N 49°28' E 000°12'0 0.0
2017-Dec-08 07:28N 49°28' E 000°12'0 0.0
2017-Dec-08 06:58N 49°28' E 000°12'0 0.0
2017-Dec-08 06:31N 49°28' E 000°12'0 0.0
2017-Dec-08 06:01N 49°28' E 000°12'0 0.0
2017-Dec-08 05:30N 49°28' E 000°12'0 0.0
2017-Dec-08 05:00N 49°28' E 000°12'0 0.0
2017-Dec-08 04:30N 49°28' E 000°12'0 0.0
2017-Dec-08 04:00N 49°28' E 000°12'0 0.0
2017-Dec-08 03:30N 49°28' E 000°12'0 0.0
2017-Dec-08 03:00N 49°28' E 000°12'0 0.0
2017-Dec-08 02:30N 49°28' E 000°12'0 0.0
2017-Dec-08 02:00N 49°28' E 000°12'0 0.0
2017-Dec-08 01:30N 49°28' E 000°12'0 0.0
2017-Dec-08 01:00N 49°28' E 000°12'1 1.0
2017-Dec-08 00:31N 49°29' E 000°11'1 1.2
2017-Dec-08 00:01N 49°29' E 000°10'1 1.2
2017-Dec-07 23:30N 49°28' E 000°10'1 1.6
2017-Dec-07 23:01N 49°28' E 000°08'5 9.1
2017-Dec-07 22:30N 49°30' E 000°02'5 9.7
2017-Dec-07 22:01N 49°30' W 000°06'2 3.5
2017-Dec-07 21:30N 49°32' W 000°07'2 3.0
2017-Dec-07 21:00N 49°33' W 000°08'0 0.4
2017-Dec-07 20:29N 49°33' W 000°08'0 0.1
2017-Dec-07 19:59N 49°33' W 000°08'0 0.0
2017-Dec-07 19:29N 49°33' W 000°08'0 0.0
2017-Dec-07 18:59N 49°33' W 000°08'0 0.0
2017-Dec-07 18:29N 49°33' W 000°08'0 0.0
2017-Dec-07 17:59N 49°33' W 000°08'0 0.0
2017-Dec-07 17:29N 49°33' W 000°08'0 0.0
2017-Dec-07 16:59N 49°34' W 000°08'0 0.1
2017-Dec-07 16:29N 49°33' W 000°08'0 0.0
2017-Dec-07 15:59N 49°33' W 000°08'0 0.1
2017-Dec-07 15:29N 49°33' W 000°08'2 4.3
2017-Dec-07 15:01N 49°35' W 000°10'510.7
2017-Dec-07 14:30N 49°38' W 000°17'510.5
2017-Dec-07 14:00N 49°40' W 000°24'1 1.8
2017-Dec-07 13:31N 49°39' W 000°25'4 8.4
2017-Dec-07 13:00N 49°39' W 000°32'815.8
2017-Dec-07 12:30N 49°42' W 000°43'916.6
2017-Dec-07 11:58N 49°46' W 000°56'6818.5
2017-Dec-07 08:16N 49°51' W 002°41'517.5
2017-Dec-07 08:00N 49°50' W 002°48'1216.7
2017-Dec-07 07:16N 49°44' W 003°04'416.5
2017-Dec-07 07:00N 49°41' W 003°09'9015.6
2017-Dec-07 01:16N 48°57' W 005°09'413.8
2017-Dec-07 01:00N 48°55' W 005°13'713.6
2017-Dec-07 00:29N 48°51' W 005°23'1213.5
2017-Dec-06 23:36N 48°44' W 005°37'1413.7
2017-Dec-06 22:36N 48°32' W 005°47'314.0
2017-Dec-06 22:25N 48°30' W 005°49'  
2017-Dec-03 09:22N 49°47' W 003°26'1116.2
2017-Dec-03 08:40N 49°53' W 003°11'715.4
2017-Dec-03 08:14N 49°55' W 003°01'314.8
2017-Dec-03 08:00N 49°57' W 002°57'1014.1
2017-Dec-03 07:16N 50°00' W 002°42'2213.0
2017-Dec-03 05:34N 50°06' W 002°08'213.0
2017-Dec-03 05:26N 50°06' W 002°05'613.5
2017-Dec-03 05:00N 50°04' W 001°57'714.3
2017-Dec-03 04:30N 50°01' W 001°47'815.3
2017-Dec-03 04:00N 49°58' W 001°36'816.4
2017-Dec-03 03:30N 49°54' W 001°24'917.1
2017-Dec-03 03:00N 49°51' W 001°12'918.0
2017-Dec-03 02:30N 49°48' W 000°59'917.7
2017-Dec-03 02:00N 49°44' W 000°47'917.2
2017-Dec-03 01:31N 49°41' W 000°34'917.1
2017-Dec-03 01:01N 49°38' W 000°22'816.3
2017-Dec-03 00:31N 49°36' W 000°10'4 8.3
2017-Dec-03 00:01N 49°33' W 000°05'3 5.9
2017-Dec-02 23:31N 49°31' W 000°03'611.5
2017-Dec-02 23:01N 49°29' E 000°06'3 6.0
2017-Dec-02 22:30N 49°29' E 000°10'0 0.5
2017-Dec-02 22:00N 49°29' E 000°11'1 2.5
2017-Dec-02 21:31N 49°28' E 000°13'0 0.0
2017-Dec-02 21:00N 49°28' E 000°13'0 0.0
2017-Dec-02 20:28N 49°28' E 000°13'0 0.0
2017-Dec-02 19:58N 49°28' E 000°13'0 0.0
2017-Dec-02 19:28N 49°28' E 000°13'0 0.0
2017-Dec-02 18:58N 49°28' E 000°13'0 0.0
2017-Dec-02 18:28N 49°28' E 000°13'0 0.0
2017-Dec-02 18:01N 49°28' E 000°13'0 0.0
2017-Dec-02 17:28N 49°28' E 000°13'0 0.0
2017-Dec-02 17:01N 49°28' E 000°13'0 0.0
2017-Dec-02 16:31N 49°28' E 000°13'0 0.0
2017-Dec-02 16:00N 49°28' E 000°13'0 0.0
2017-Dec-02 15:30N 49°28' E 000°13'0 0.0
2017-Dec-02 15:00N 49°28' E 000°13'0 0.2
2017-Dec-02 14:31N 49°28' E 000°13'1 1.6
2017-Dec-02 14:01N 49°29' E 000°11'1 1.4
2017-Dec-02 13:31N 49°29' E 000°10'0 0.0
2017-Dec-02 13:00N 49°29' E 000°10'2 4.1
2017-Dec-02 12:30N 49°28' E 000°07'510.6
2017-Dec-02 12:01N 49°30' W 000°01'510.0
2017-Dec-02 11:31N 49°33' W 000°07'1 1.6
2017-Dec-02 10:58N 49°33' W 000°08'0 0.0
2017-Dec-02 10:28N 49°33' W 000°08'0 0.0
2017-Dec-02 09:58N 49°33' W 000°08'0 0.0
2017-Dec-02 09:28N 49°33' W 000°08'0 0.1
2017-Dec-02 08:58N 49°33' W 000°08'0 0.0
2017-Dec-02 08:28N 49°33' W 000°08'0 0.0
2017-Dec-02 07:58N 49°33' W 000°08'0 0.0
2017-Dec-02 07:28N 49°33' W 000°08'0 0.1
2017-Dec-02 06:58N 49°33' W 000°08'0 0.2
2017-Dec-02 06:28N 49°33' W 000°08'0 0.1
2017-Dec-02 05:58N 49°33' W 000°08'0 0.1
2017-Dec-02 05:28N 49°33' W 000°08'0 0.0
2017-Dec-02 04:58N 49°33' W 000°08'0 0.0
2017-Dec-02 04:28N 49°33' W 000°08'0 0.0
2017-Dec-02 03:58N 49°33' W 000°08'0 0.0
2017-Dec-02 03:28N 49°33' W 000°08'0 0.0
2017-Dec-02 02:58N 49°33' W 000°08'0 0.0
2017-Dec-02 02:31N 49°33' W 000°08'0 0.0
2017-Dec-02 02:01N 49°33' W 000°08'0 0.1
2017-Dec-02 01:30N 49°33' W 000°08'0 0.0
2017-Dec-02 01:00N 49°33' W 000°08'0 0.0
2017-Dec-02 00:30N 49°33' W 000°08'0 0.0
2017-Dec-02 00:00N 49°33' W 000°08'0 0.0
2017-Dec-01 23:30N 49°33' W 000°08'0 0.0
2017-Dec-01 23:00N 49°33' W 000°08'1 1.5
2017-Dec-01 22:31N 49°34' W 000°08'713.2
2017-Dec-01 22:00N 49°41' W 000°08'815.5
2017-Dec-01 21:30N 49°48' W 000°09'815.5
2017-Dec-01 21:00N 49°56' W 000°09'815.5
2017-Dec-01 20:30N 50°04' W 000°09'815.1
2017-Dec-01 20:00N 50°11' W 000°09'915.4
2017-Dec-01 19:25N 50°20' W 000°07'613.3
2017-Dec-01 18:59N 50°25' W 000°02'612.2
2017-Dec-01 18:29N 50°29' E 000°06'714.0
2017-Dec-01 18:00N 50°30' E 000°16'714.6
2017-Dec-01 17:30N 50°32' E 000°27'815.2
2017-Dec-01 17:00N 50°35' E 000°38'816.2
2017-Dec-01 16:30N 50°40' E 000°48'817.0
2017-Dec-01 16:00N 50°45' E 000°59'917.4
2017-Dec-01 15:29N 50°51' E 001°10'817.5
2017-Dec-01 15:00N 50°56' E 001°20'917.4
2017-Dec-01 14:30N 51°03' E 001°28'816.3
2017-Dec-01 14:00N 51°10' E 001°36'714.8
2017-Dec-01 13:30N 51°17' E 001°38'713.9
2017-Dec-01 13:00N 51°23' E 001°34'714.0
2017-Dec-01 12:30N 51°28' E 001°25'917.4
2017-Dec-01 12:00N 51°29' E 001°11'  
Track history (hours):
 
Tides and Currents Weather Stations Pressure Air Temp Water Temp Dewpoint Dewpoint Depression Visibility Wind Speed Wind Dir Waves Ship Positions

Asian Breeze

Last reported at 2017-Dec-11 07:57 UTC. Time now 2017-Dec-13 03:24 UTC.
Position N 49°48' W 003°22'.

Length 164 m; draft 6.3 m.

Type: Cargo ship. MMSI: 564994000.

Date/timePositionNaut miles runAvg speedWind from/ knotsBaromVisibWave heightAir tempDewpointWater temp
2017-Dec-11 07:57N 49°48' W 003°22'1516.0
2017-Dec-11 06:59N 49°56' W 003°02'816.2
2017-Dec-11 06:29N 49°60' W 002°51'916.1
2017-Dec-11 05:56N 50°02' W 002°37'8513.7
2017-Dec-10 23:44N 50°24' W 000°29'315.2
2017-Dec-10 23:30N 50°25' W 000°24'815.7
2017-Dec-10 23:00N 50°27' W 000°12'816.2
2017-Dec-10 22:30N 50°29' W 000°00'816.3
2017-Dec-10 22:00N 50°31' E 000°12'816.5
2017-Dec-10 21:30N 50°34' E 000°25'816.3
2017-Dec-10 21:00N 50°37' E 000°37'816.1
2017-Dec-10 20:30N 50°41' E 000°48'815.7
2017-Dec-10 20:00N 50°46' E 000°57'815.0
2017-Dec-10 19:30N 50°50' E 001°07'714.4
2017-Dec-10 19:00N 50°54' E 001°17'713.3
2017-Dec-10 18:30N 50°59' E 001°23'612.4
2017-Dec-10 18:00N 51°04' E 001°29'611.8
2017-Dec-10 17:31N 51°09' E 001°35'612.1
2017-Dec-10 17:01N 51°14' E 001°38'713.8
2017-Dec-10 16:31N 51°21' E 001°37'713.2
2017-Dec-10 16:00N 51°26' E 001°29'510.1
2017-Dec-10 15:30N 51°28' E 001°22'13 1.0
2017-Dec-10 03:12N 51°30' E 001°02'316.1
2017-Dec-10 03:00N 51°29' E 001°07'816.2
2017-Dec-10 02:31N 51°29' E 001°20'713.7
2017-Dec-10 02:00N 51°26' E 001°30'3 5.7
2017-Dec-10 01:30N 51°24' E 001°33'4 8.7
2017-Dec-10 01:00N 51°23' E 001°40'815.3
2017-Dec-10 00:30N 51°28' E 001°48'714.2
2017-Dec-10 00:00N 51°27' E 001°59'815.1
2017-Dec-09 23:30N 51°23' E 002°10'714.7
2017-Dec-09 23:00N 51°21' E 002°21'815.7
2017-Dec-09 22:28N 51°23' E 002°35'613.4
2017-Dec-09 21:59N 51°23' E 002°45'714.0
2017-Dec-09 21:30N 51°23' E 002°56'714.3
2017-Dec-09 21:00N 51°24' E 003°07'510.6
2017-Dec-09 20:31N 51°20' E 003°13'0 0.1
2017-Dec-09 20:01N 51°20' E 003°13'0 0.0
2017-Dec-09 19:30N 51°20' E 003°13'1 2.6
2017-Dec-09 19:01N 51°19' E 003°13'0 0.0
2017-Dec-09 18:31N 51°19' E 003°13'0 0.0
2017-Dec-09 18:01N 51°19' E 003°13'0 0.0
2017-Dec-09 17:31N 51°19' E 003°13'0 0.0
2017-Dec-09 17:01N 51°19' E 003°13'0 0.0
2017-Dec-09 16:28N 51°19' E 003°13'0 0.0
2017-Dec-09 15:58N 51°19' E 003°13'0 0.0
2017-Dec-09 15:25N 51°19' E 003°13'0 0.0
2017-Dec-09 14:58N 51°19' E 003°13'0 0.0
2017-Dec-09 14:28N 51°19' E 003°13'0 0.0
2017-Dec-09 13:58N 51°19' E 003°13'0 0.0
2017-Dec-09 13:28N 51°19' E 003°13'0 0.0
2017-Dec-09 12:58N 51°19' E 003°13'0 0.0
2017-Dec-09 12:28N 51°19' E 003°13'0 0.0
2017-Dec-09 11:58N 51°19' E 003°13'0 0.0
2017-Dec-09 11:28N 51°19' E 003°13'0 0.0
2017-Dec-09 10:58N 51°19' E 003°13'0 0.0
2017-Dec-09 10:28N 51°19' E 003°13'0 0.0
2017-Dec-09 09:58N 51°19' E 003°13'0 0.0
2017-Dec-09 09:28N 51°19' E 003°13'0 0.0
2017-Dec-09 08:58N 51°19' E 003°13'0 0.0
2017-Dec-09 08:28N 51°19' E 003°13'0 0.0
2017-Dec-09 07:58N 51°19' E 003°13'0 0.0
2017-Dec-09 07:28N 51°19' E 003°13'0 0.3
2017-Dec-09 07:00N 51°19' E 003°13'1 2.2
2017-Dec-09 06:30N 51°20' E 003°13'0 0.0
2017-Dec-09 06:00N 51°20' E 003°13'1 1.0
2017-Dec-09 05:30N 51°20' E 003°13'4 8.6
2017-Dec-09 05:01N 51°24' E 003°08'713.6
2017-Dec-09 04:30N 51°22' E 002°57'815.2
2017-Dec-09 04:00N 51°22' E 002°45'813.3
2017-Dec-09 03:26N 51°22' E 002°33'715.8
2017-Dec-09 03:00N 51°20' E 002°23'815.3
2017-Dec-09 02:30N 51°16' E 002°12'815.1
2017-Dec-09 02:00N 51°12' E 002°02'714.4
2017-Dec-09 01:31N 51°09' E 001°52'714.0
2017-Dec-09 01:00N 51°05' E 001°42'612.9
2017-Dec-09 00:30N 51°00' E 001°36'612.8
2017-Dec-09 00:00N 50°55' E 001°29'612.1
2017-Dec-08 23:30N 50°50' E 001°25'2913.1
2017-Dec-08 21:19N 50°28' E 000°56'514.5
2017-Dec-08 20:59N 50°26' E 000°48'3613.3
2017-Dec-08 18:16N 50°10' W 000°02'413.8
2017-Dec-08 18:00N 50°06' W 000°03'713.9
2017-Dec-08 17:30N 49°59' W 000°05'714.0
2017-Dec-08 17:00N 49°52' W 000°07'714.2
2017-Dec-08 16:30N 49°45' W 000°08'714.2
2017-Dec-08 16:00N 49°39' W 000°05'714.3
2017-Dec-08 15:30N 49°32' W 000°00'611.2
2017-Dec-08 15:01N 49°29' E 000°06'2 5.0
2017-Dec-08 14:30N 49°29' E 000°10'0 0.1
2017-Dec-08 14:01N 49°29' E 000°10'1 2.3
2017-Dec-08 13:31N 49°28' E 000°12'0 0.0
2017-Dec-08 13:00N 49°28' E 000°12'0 0.0
2017-Dec-08 12:28N 49°28' E 000°12'0 0.0
2017-Dec-08 11:58N 49°28' E 000°12'0 0.0
2017-Dec-08 11:28N 49°28' E 000°12'0 0.0
2017-Dec-08 10:58N 49°28' E 000°12'0 0.0
2017-Dec-08 10:28N 49°28' E 000°12'0 0.0
2017-Dec-08 09:58N 49°28' E 000°12'0 0.0
2017-Dec-08 09:28N 49°28' E 000°12'0 0.0
2017-Dec-08 08:58N 49°28' E 000°12'0 0.0
2017-Dec-08 08:28N 49°28' E 000°12'0 0.0
2017-Dec-08 07:58N 49°28' E 000°12'0 0.0
2017-Dec-08 07:28N 49°28' E 000°12'0 0.0
2017-Dec-08 06:58N 49°28' E 000°12'0 0.0
2017-Dec-08 06:31N 49°28' E 000°12'0 0.0
2017-Dec-08 06:01N 49°28' E 000°12'0 0.0
2017-Dec-08 05:30N 49°28' E 000°12'0 0.0
2017-Dec-08 05:00N 49°28' E 000°12'0 0.0
2017-Dec-08 04:30N 49°28' E 000°12'0 0.0
2017-Dec-08 04:00N 49°28' E 000°12'0 0.0
2017-Dec-08 03:30N 49°28' E 000°12'0 0.0
2017-Dec-08 03:00N 49°28' E 000°12'0 0.0
2017-Dec-08 02:30N 49°28' E 000°12'0 0.0
2017-Dec-08 02:00N 49°28' E 000°12'0 0.0
2017-Dec-08 01:30N 49°28' E 000°12'0 0.0
2017-Dec-08 01:00N 49°28' E 000°12'1 1.0
2017-Dec-08 00:31N 49°29' E 000°11'1 1.2
2017-Dec-08 00:01N 49°29' E 000°10'1 1.2
2017-Dec-07 23:30N 49°28' E 000°10'1 1.6
2017-Dec-07 23:01N 49°28' E 000°08'5 9.1
2017-Dec-07 22:30N 49°30' E 000°02'5 9.7
2017-Dec-07 22:01N 49°30' W 000°06'2 3.5
2017-Dec-07 21:30N 49°32' W 000°07'2 3.0
2017-Dec-07 21:00N 49°33' W 000°08'0 0.4
2017-Dec-07 20:29N 49°33' W 000°08'0 0.1
2017-Dec-07 19:59N 49°33' W 000°08'0 0.0
2017-Dec-07 19:29N 49°33' W 000°08'0 0.0
2017-Dec-07 18:59N 49°33' W 000°08'0 0.0
2017-Dec-07 18:29N 49°33' W 000°08'0 0.0
2017-Dec-07 17:59N 49°33' W 000°08'0 0.0
2017-Dec-07 17:29N 49°33' W 000°08'0 0.0
2017-Dec-07 16:59N 49°34' W 000°08'0 0.1
2017-Dec-07 16:29N 49°33' W 000°08'0 0.0
2017-Dec-07 15:59N 49°33' W 000°08'0 0.1
2017-Dec-07 15:29N 49°33' W 000°08'2 4.3
2017-Dec-07 15:01N 49°35' W 000°10'510.7
2017-Dec-07 14:30N 49°38' W 000°17'510.5
2017-Dec-07 14:00N 49°40' W 000°24'1 1.8
2017-Dec-07 13:31N 49°39' W 000°25'4 8.4
2017-Dec-07 13:00N 49°39' W 000°32'815.8
2017-Dec-07 12:30N 49°42' W 000°43'916.6
2017-Dec-07 11:58N 49°46' W 000°56'6818.5
2017-Dec-07 08:16N 49°51' W 002°41'517.5
2017-Dec-07 08:00N 49°50' W 002°48'1216.7
2017-Dec-07 07:16N 49°44' W 003°04'416.5
2017-Dec-07 07:00N 49°41' W 003°09'9015.6
2017-Dec-07 01:16N 48°57' W 005°09'413.8
2017-Dec-07 01:00N 48°55' W 005°13'713.6
2017-Dec-07 00:29N 48°51' W 005°23'1213.5
2017-Dec-06 23:36N 48°44' W 005°37'1413.7
2017-Dec-06 22:36N 48°32' W 005°47'314.0
2017-Dec-06 22:25N 48°30' W 005°49'  
2017-Dec-03 09:22N 49°47' W 003°26'1116.2
2017-Dec-03 08:40N 49°53' W 003°11'715.4
2017-Dec-03 08:14N 49°55' W 003°01'314.8
2017-Dec-03 08:00N 49°57' W 002°57'1014.1
2017-Dec-03 07:16N 50°00' W 002°42'2213.0
2017-Dec-03 05:34N 50°06' W 002°08'213.0
2017-Dec-03 05:26N 50°06' W 002°05'613.5
2017-Dec-03 05:00N 50°04' W 001°57'714.3
2017-Dec-03 04:30N 50°01' W 001°47'815.3
2017-Dec-03 04:00N 49°58' W 001°36'816.4
2017-Dec-03 03:30N 49°54' W 001°24'917.1
2017-Dec-03 03:00N 49°51' W 001°12'918.0
2017-Dec-03 02:30N 49°48' W 000°59'917.7
2017-Dec-03 02:00N 49°44' W 000°47'917.2
2017-Dec-03 01:31N 49°41' W 000°34'917.1
2017-Dec-03 01:01N 49°38' W 000°22'816.3
2017-Dec-03 00:31N 49°36' W 000°10'4 8.3
2017-Dec-03 00:01N 49°33' W 000°05'3 5.9
2017-Dec-02 23:31N 49°31' W 000°03'611.5
2017-Dec-02 23:01N 49°29' E 000°06'3 6.0
2017-Dec-02 22:30N 49°29' E 000°10'0 0.5
2017-Dec-02 22:00N 49°29' E 000°11'1 2.5
2017-Dec-02 21:31N 49°28' E 000°13'0 0.0
2017-Dec-02 21:00N 49°28' E 000°13'0 0.0
2017-Dec-02 20:28N 49°28' E 000°13'0 0.0
2017-Dec-02 19:58N 49°28' E 000°13'0 0.0
2017-Dec-02 19:28N 49°28' E 000°13'0 0.0
2017-Dec-02 18:58N 49°28' E 000°13'0 0.0
2017-Dec-02 18:28N 49°28' E 000°13'0 0.0
2017-Dec-02 18:01N 49°28' E 000°13'0 0.0
2017-Dec-02 17:28N 49°28' E 000°13'0 0.0
2017-Dec-02 17:01N 49°28' E 000°13'0 0.0
2017-Dec-02 16:31N 49°28' E 000°13'0 0.0
2017-Dec-02 16:00N 49°28' E 000°13'0 0.0
2017-Dec-02 15:30N 49°28' E 000°13'0 0.0
2017-Dec-02 15:00N 49°28' E 000°13'0 0.2
2017-Dec-02 14:31N 49°28' E 000°13'1 1.6
2017-Dec-02 14:01N 49°29' E 000°11'1 1.4
2017-Dec-02 13:31N 49°29' E 000°10'0 0.0
2017-Dec-02 13:00N 49°29' E 000°10'2 4.1
2017-Dec-02 12:30N 49°28' E 000°07'510.6
2017-Dec-02 12:01N 49°30' W 000°01'510.0
2017-Dec-02 11:31N 49°33' W 000°07'1 1.6
2017-Dec-02 10:58N 49°33' W 000°08'0 0.0
2017-Dec-02 10:28N 49°33' W 000°08'0 0.0
2017-Dec-02 09:58N 49°33' W 000°08'0 0.0
2017-Dec-02 09:28N 49°33' W 000°08'0 0.1
2017-Dec-02 08:58N 49°33' W 000°08'0 0.0
2017-Dec-02 08:28N 49°33' W 000°08'0 0.0
2017-Dec-02 07:58N 49°33' W 000°08'0 0.0
2017-Dec-02 07:28N 49°33' W 000°08'0 0.1
2017-Dec-02 06:58N 49°33' W 000°08'0 0.2
2017-Dec-02 06:28N 49°33' W 000°08'0 0.1
2017-Dec-02 05:58N 49°33' W 000°08'0 0.1
2017-Dec-02 05:28N 49°33' W 000°08'0 0.0
2017-Dec-02 04:58N 49°33' W 000°08'0 0.0
2017-Dec-02 04:28N 49°33' W 000°08'0 0.0
2017-Dec-02 03:58N 49°33' W 000°08'0 0.0
2017-Dec-02 03:28N 49°33' W 000°08'0 0.0
2017-Dec-02 02:58N 49°33' W 000°08'0 0.0
2017-Dec-02 02:31N 49°33' W 000°08'0 0.0
2017-Dec-02 02:01N 49°33' W 000°08'0 0.1
2017-Dec-02 01:30N 49°33' W 000°08'0 0.0
2017-Dec-02 01:00N 49°33' W 000°08'0 0.0
2017-Dec-02 00:30N 49°33' W 000°08'0 0.0
2017-Dec-02 00:00N 49°33' W 000°08'0 0.0
2017-Dec-01 23:30N 49°33' W 000°08'0 0.0
2017-Dec-01 23:00N 49°33' W 000°08'1 1.5
2017-Dec-01 22:31N 49°34' W 000°08'713.2
2017-Dec-01 22:00N 49°41' W 000°08'815.5
2017-Dec-01 21:30N 49°48' W 000°09'815.5
2017-Dec-01 21:00N 49°56' W 000°09'815.5
2017-Dec-01 20:30N 50°04' W 000°09'815.1
2017-Dec-01 20:00N 50°11' W 000°09'915.4
2017-Dec-01 19:25N 50°20' W 000°07'613.3
2017-Dec-01 18:59N 50°25' W 000°02'612.2
2017-Dec-01 18:29N 50°29' E 000°06'714.0
2017-Dec-01 18:00N 50°30' E 000°16'714.6
2017-Dec-01 17:30N 50°32' E 000°27'815.2
2017-Dec-01 17:00N 50°35' E 000°38'816.2
2017-Dec-01 16:30N 50°40' E 000°48'817.0
2017-Dec-01 16:00N 50°45' E 000°59'917.4
2017-Dec-01 15:29N 50°51' E 001°10'817.5
2017-Dec-01 15:00N 50°56' E 001°20'917.4
2017-Dec-01 14:30N 51°03' E 001°28'816.3
2017-Dec-01 14:00N 51°10' E 001°36'714.8
2017-Dec-01 13:30N 51°17' E 001°38'713.9
2017-Dec-01 13:00N 51°23' E 001°34'714.0
2017-Dec-01 12:30N 51°28' E 001°25'917.4
2017-Dec-01 12:00N 51°29' E 001°11'  

Dump ship's entire track history